METAR Data
IDs: Format: Raw Decoded Include TAF

Data at: 0236 UTC 29 Nov 2020

METAR for:KVTI (Vinton/Veterans Mem, IA, US)
Text:KVTI 290235Z AUTO 21008KT 10SM CLR 07/01 A2999 RMK AO2 T00740014
Temperature: 7.4°C ( 45°F)
Dewpoint: 1.4°C ( 35°F) [RH = 66%]
Pressure (altimeter):29.99 inches Hg (1015.7 mb)
Winds:from the SSW (210 degrees) at 9 MPH (8 knots; 4.1 m/s)
Visibility:10 or more sm (16+ km)
Ceiling:at least 12,000 feet AGL
Clouds:sky clear below 12,000 feet AGL
QC Flag:automated observation with no human augmentation